Time;durP1;ratioP1;P1;durP2;ratioP2;P2;SDS_P1;SDS_P2;PMS_P1;PMS_P2;Temp;Humidity;BMP_temperature;BMP_pressure;BME280_temperature;BME280_humidity;BME280_pressure;Samples;Min_cycle;Max_cycle;Signal;HPM_P1;HPM_P2
2023/06/21 00:00:13;;;;;;;6.07;5.30;;;20.10;99.90;;;;;;5092854;28;20170;-72
2023/06/21 00:02:40;;;;;;;5.07;4.68;;;20.10;99.90;;;;;;5092948;28;20204;-73
2023/06/21 00:05:09;;;;;;;5.53;5.13;;;20.10;99.90;;;;;;5074999;28;20223;-72
2023/06/21 00:07:35;;;;;;;5.97;5.43;;;20.10;99.90;;;;;;5092824;28;20601;-72
2023/06/21 00:10:01;;;;;;;5.47;5.07;;;20.10;99.90;;;;;;5092610;28;20252;-72
2023/06/21 00:12:28;;;;;;;5.80;5.32;;;20.00;99.90;;;;;;5092335;28;20543;-72
2023/06/21 00:14:53;;;;;;;6.03;5.47;;;20.00;99.90;;;;;;5092914;28;20200;-72
2023/06/21 00:17:19;;;;;;;6.15;5.65;;;20.00;99.90;;;;;;5092673;28;20177;-72
2023/06/21 00:19:47;;;;;;;7.93;5.30;;;19.90;99.90;;;;;;5091976;28;20181;-73
2023/06/21 00:22:14;;;;;;;6.03;5.50;;;20.00;99.90;;;;;;5092134;28;20177;-72
2023/06/21 00:24:39;;;;;;;6.45;5.32;;;20.00;99.90;;;;;;5074465;28;20208;-72
2023/06/21 00:27:05;;;;;;;5.82;5.32;;;20.00;99.90;;;;;;5093033;28;20180;-72
2023/06/21 00:29:31;;;;;;;5.93;5.43;;;20.00;99.90;;;;;;5092698;28;20547;-73
2023/06/21 00:31:58;;;;;;;5.75;5.25;;;20.00;99.90;;;;;;5092823;28;20181;-72
2023/06/21 00:34:23;;;;;;;6.45;5.85;;;19.90;99.90;;;;;;5092156;28;20204;-72
2023/06/21 00:36:49;;;;;;;6.05;5.55;;;19.90;99.90;;;;;;5092480;28;20612;-73
2023/06/21 00:39:15;;;;;;;6.28;5.78;;;19.90;99.90;;;;;;5074576;28;20325;-72
2023/06/21 00:41:40;;;;;;;6.93;6.43;;;19.90;99.90;;;;;;5092291;28;20172;-73
2023/06/21 00:44:08;;;;;;;8.25;6.65;;;19.90;99.90;;;;;;5085624;28;20247;-72
2023/06/21 00:46:34;;;;;;;6.95;6.45;;;19.90;99.90;;;;;;5071950;28;20174;-71
2023/06/21 00:49:00;;;;;;;6.63;6.03;;;19.90;99.90;;;;;;5084574;28;20180;-73
2023/06/21 00:51:25;;;;;;;6.50;5.60;;;19.90;99.90;;;;;;5091805;28;20543;-72
2023/06/21 00:53:51;;;;;;;6.80;5.63;;;19.90;99.90;;;;;;5073634;28;20308;-72
2023/06/21 00:56:17;;;;;;;6.10;5.65;;;19.90;99.90;;;;;;5092063;28;20545;-72
2023/06/21 00:58:45;;;;;;;5.70;5.30;;;19.90;99.90;;;;;;5092030;28;20165;-72
2023/06/21 01:01:11;;;;;;;6.32;5.72;;;19.90;99.90;;;;;;5091802;28;20170;-72
2023/06/21 01:03:36;;;;;;;6.40;5.68;;;19.90;99.90;;;;;;5091996;28;20174;-72
2023/06/21 01:06:49;;;;;;;6.22;5.72;;;19.90;99.90;;;;;;5091937;28;20276;-73
2023/06/21 01:09:26;;;;;;;6.82;6.18;;;19.90;99.90;;;;;;5009428;28;20211;-73
2023/06/21 01:11:58;;;;;;;6.22;5.28;;;19.80;99.90;;;;;;5087571;28;20533;-73
2023/06/21 01:14:50;;;;;;;6.85;5.55;;;19.80;99.90;;;;;;5091616;28;20197;-72
2023/06/21 01:17:18;;;;;;;6.80;6.18;;;19.80;99.90;;;;;;5091409;28;20235;-73
2023/06/21 01:19:55;;;;;;;6.80;6.30;;;19.70;99.90;;;;;;5091484;28;20181;-72
2023/06/21 01:22:21;;;;;;;6.72;6.10;;;19.70;99.90;;;;;;5073598;28;20258;-72
2023/06/21 01:25:09;;;;;;;8.05;6.35;;;19.60;99.90;;;;;;5073113;28;20221;-72
2023/06/21 01:28:27;;;;;;;7.00;6.40;;;19.70;99.90;;;;;;5091647;28;20645;-72
2023/06/21 01:30:57;;;;;;;8.10;6.00;;;19.70;99.90;;;;;;5057924;28;20185;-72
2023/06/21 01:33:23;;;;;;;8.07;5.97;;;19.60;99.90;;;;;;5091524;28;20200;-73
2023/06/21 01:35:52;;;;;;;7.13;6.53;;;19.70;99.90;;;;;;5091324;28;20681;-72
2023/06/21 01:38:19;;;;;;;6.88;6.32;;;19.70;99.90;;;;;;5091449;28;20174;-73
2023/06/21 01:40:44;;;;;;;10.88;6.60;;;19.70;99.90;;;;;;5090901;28;20531;-73
2023/06/21 01:43:11;;;;;;;6.80;6.28;;;19.70;99.90;;;;;;5091341;28;20256;-72
2023/06/21 01:45:37;;;;;;;6.72;6.00;;;19.70;99.90;;;;;;5091364;28;20286;-72
2023/06/21 01:48:04;;;;;;;7.07;6.40;;;19.60;99.90;;;;;;5091234;28;20180;-73
2023/06/21 01:50:31;;;;;;;6.63;5.97;;;19.60;99.90;;;;;;5090835;28;20593;-71
2023/06/21 01:52:57;;;;;;;5.97;5.47;;;19.60;99.90;;;;;;5090902;28;20225;-72
2023/06/21 01:55:23;;;;;;;5.88;5.25;;;19.60;99.90;;;;;;5091352;28;20228;-72
2023/06/21 01:57:49;;;;;;;7.38;6.68;;;19.50;99.90;;;;;;5091184;28;20261;-72
2023/06/21 02:00:21;;;;;;;7.05;6.40;;;19.50;99.90;;;;;;5091180;28;20303;-73
2023/06/21 02:02:55;;;;;;;6.88;6.18;;;19.50;99.90;;;;;;5090994;28;20636;-72
2023/06/21 02:05:21;;;;;;;7.13;6.53;;;19.50;99.90;;;;;;5095648;28;20691;-72
2023/06/21 02:07:48;;;;;;;7.15;6.55;;;19.40;99.90;;;;;;5094874;28;20181;-72
2023/06/21 02:10:19;;;;;;;8.35;6.70;;;19.40;99.90;;;;;;5094913;28;20571;-73
2023/06/21 02:12:52;;;;;;;8.07;6.10;;;19.30;99.90;;;;;;5095247;28;20165;-73
2023/06/21 02:15:18;;;;;;;7.23;6.53;;;19.30;99.90;;;;;;5094000;28;20216;-72
2023/06/21 02:17:51;;;;;;;7.68;6.97;;;19.30;99.90;;;;;;5093494;28;20184;-72
2023/06/21 02:20:18;;;;;;;7.15;6.45;;;19.30;99.90;;;;;;5093417;28;20165;-71
2023/06/21 02:22:45;;;;;;;6.82;6.13;;;19.20;99.90;;;;;;5094043;28;20708;-72
2023/06/21 02:25:12;;;;;;;6.70;6.10;;;19.20;99.90;;;;;;5094465;28;20244;-72
2023/06/21 02:27:37;;;;;;;7.63;6.37;;;19.20;99.90;;;;;;5094874;28;20166;-72
2023/06/21 02:30:04;;;;;;;6.65;6.00;;;19.20;99.90;;;;;;5094604;28;20189;-72
2023/06/21 02:32:30;;;;;;;7.67;6.87;;;19.10;99.90;;;;;;5094689;28;20165;-72
2023/06/21 02:34:55;;;;;;;6.50;5.90;;;19.10;99.90;;;;;;5076157;28;20190;-72
2023/06/21 02:37:21;;;;;;;7.00;6.37;;;19.10;99.90;;;;;;5095446;28;20506;-72
2023/06/21 02:39:47;;;;;;;6.82;6.18;;;19.10;99.90;;;;;;5103595;28;20244;-75
2023/06/21 02:42:12;;;;;;;6.80;6.20;;;19.10;99.90;;;;;;5085401;28;20183;-74
2023/06/21 02:44:38;;;;;;;7.38;6.78;;;19.00;99.90;;;;;;5106983;28;20201;-76
2023/06/21 02:47:06;;;;;;;6.80;6.10;;;19.00;99.90;;;;;;5104658;28;20639;-74
2023/06/21 02:49:36;;;;;;;6.93;6.25;;;19.00;99.90;;;;;;5106183;28;20173;-75
2023/06/21 02:52:02;;;;;;;6.87;6.30;;;19.00;99.90;;;;;;5086200;28;20181;-74
2023/06/21 02:54:28;;;;;;;7.57;6.87;;;18.90;99.90;;;;;;5106139;28;20197;-75
2023/06/21 02:56:54;;;;;;;6.93;6.23;;;18.90;99.90;;;;;;5086545;28;20181;-73
2023/06/21 02:59:19;;;;;;;8.07;6.33;;;18.90;99.90;;;;;;5079776;28;20201;-74
2023/06/21 03:01:47;;;;;;;7.50;6.80;;;18.80;99.90;;;;;;5100027;28;20607;-75
2023/06/21 03:04:16;;;;;;;7.10;6.60;;;18.80;99.90;;;;;;5083674;28;20177;-74
2023/06/21 03:06:42;;;;;;;7.72;6.82;;;18.70;99.90;;;;;;5101910;28;20185;-74
2023/06/21 03:09:08;;;;;;;8.48;6.72;;;18.70;99.90;;;;;;5100066;28;20196;-73
2023/06/21 03:11:33;;;;;;;7.67;6.90;;;18.60;99.90;;;;;;5080131;28;20185;-74
2023/06/21 03:13:59;;;;;;;8.02;7.32;;;18.60;99.90;;;;;;5096670;28;20370;-73
2023/06/21 03:16:25;;;;;;;7.40;6.80;;;18.60;99.90;;;;;;5079578;28;20726;-73
2023/06/21 03:18:51;;;;;;;8.00;7.20;;;18.60;99.90;;;;;;5080204;28;20207;-74
2023/06/21 03:21:16;;;;;;;8.45;7.60;;;18.60;99.90;;;;;;5098790;28;20539;-73
2023/06/21 03:23:43;;;;;;;8.02;7.32;;;18.60;99.90;;;;;;5100514;28;20586;-73
2023/06/21 03:26:09;;;;;;;8.53;7.67;;;18.60;99.90;;;;;;5107850;28;20268;-78
2023/06/21 03:28:35;;;;;;;9.00;8.20;;;18.60;99.90;;;;;;5111966;28;20199;-77
2023/06/21 03:31:01;;;;;;;8.05;7.28;;;18.60;99.90;;;;;;5092407;28;20192;-79
2023/06/21 03:33:27;;;;;;;9.63;8.77;;;18.60;99.90;;;;;;5112273;27;20201;-77
2023/06/21 03:35:54;;;;;;;9.18;8.38;;;18.70;99.90;;;;;;5109970;28;20193;-77
2023/06/21 03:38:20;;;;;;;9.67;8.97;;;18.80;99.90;;;;;;5103850;28;20182;-75
2023/06/21 03:40:46;;;;;;;10.75;8.98;;;18.80;99.90;;;;;;5083404;28;20291;-75
2023/06/21 03:43:13;;;;;;;8.53;7.80;;;18.80;99.90;;;;;;5080815;28;20197;-73
2023/06/21 03:45:39;;;;;;;8.40;7.60;;;18.90;99.90;;;;;;5079392;28;20655;-72
2023/06/21 03:48:05;;;;;;;8.60;7.75;;;18.90;99.90;;;;;;5077469;28;20205;-73
2023/06/21 03:50:32;;;;;;;7.68;6.97;;;19.00;99.90;;;;;;5093669;28;20171;-72
2023/06/21 03:52:58;;;;;;;9.57;8.00;;;19.00;99.90;;;;;;5093763;28;20218;-72
2023/06/21 03:55:24;;;;;;;8.23;7.63;;;19.10;99.90;;;;;;5075031;28;20207;-71
2023/06/21 03:57:50;;;;;;;6.90;6.30;;;19.20;99.90;;;;;;5093051;28;20189;-71
2023/06/21 04:00:16;;;;;;;8.50;7.70;;;19.30;99.90;;;;;;5092857;28;20226;-72
2023/06/21 04:02:42;;;;;;;8.10;7.40;;;19.30;99.90;;;;;;5092747;28;20177;-72
2023/06/21 04:05:11;;;;;;;8.73;7.88;;;19.40;99.90;;;;;;5093055;28;20247;-72
2023/06/21 04:07:39;;;;;;;9.75;8.98;;;19.40;99.90;;;;;;5092957;28;20394;-72
2023/06/21 04:10:06;;;;;;;7.35;6.40;;;19.50;99.90;;;;;;5092885;28;20288;-72
2023/06/21 04:12:32;;;;;;;8.07;6.57;;;19.50;99.90;;;;;;5092396;28;20302;-72
2023/06/21 04:15:00;;;;;;;7.45;6.03;;;19.60;99.90;;;;;;5093045;28;20650;-72
2023/06/21 04:17:27;;;;;;;7.93;6.45;;;19.60;99.90;;;;;;5092765;28;20630;-72
2023/06/21 04:19:55;;;;;;;7.00;6.25;;;19.60;99.90;;;;;;5092539;28;20197;-72
2023/06/21 04:22:23;;;;;;;7.10;6.50;;;19.60;99.90;;;;;;5074582;28;20201;-72
2023/06/21 04:24:49;;;;;;;7.63;6.55;;;19.70;99.90;;;;;;5092603;28;20189;-72
2023/06/21 04:27:15;;;;;;;9.95;6.00;;;19.70;99.90;;;;;;5072176;28;20181;-72
2023/06/21 04:29:40;;;;;;;10.13;6.82;;;19.80;99.90;;;;;;5072116;28;20178;-72
2023/06/21 04:32:08;;;;;;;9.55;6.72;;;19.80;99.90;;;;;;5072449;28;20185;-72
2023/06/21 04:34:34;;;;;;;11.82;7.68;;;19.90;99.90;;;;;;5086359;28;20213;-72
2023/06/21 04:37:05;;;;;;;9.20;8.40;;;20.00;99.90;;;;;;5092609;28;20327;-72
2023/06/21 04:39:31;;;;;;;10.98;6.38;;;20.10;99.90;;;;;;5092434;28;20277;-72
2023/06/21 04:41:58;;;;;;;9.70;8.85;;;20.40;99.90;;;;;;5092608;28;20761;-72
2023/06/21 04:44:24;;;;;;;9.15;8.27;;;20.50;99.90;;;;;;5092237;28;20180;-72
2023/06/21 04:46:50;;;;;;;8.80;7.43;;;20.70;99.90;;;;;;5092357;28;20169;-72
2023/06/21 04:49:17;;;;;;;10.20;9.20;;;20.90;99.90;;;;;;5092317;28;20181;-72
2023/06/21 04:51:43;;;;;;;12.95;11.40;;;21.00;99.90;;;;;;5073831;28;20200;-72
2023/06/21 04:54:09;;;;;;;22.13;20.88;;;21.30;99.90;;;;;;5092254;28;20224;-72
2023/06/21 04:56:35;;;;;;;21.90;20.27;;;21.50;99.90;;;;;;5092197;28;20631;-73
2023/06/21 04:59:03;;;;;;;10.32;8.68;;;21.70;99.90;;;;;;5092224;28;20517;-72
2023/06/21 05:01:30;;;;;;;9.65;8.95;;;22.00;99.90;;;;;;5091908;28;20650;-72
2023/06/21 05:03:56;;;;;;;12.75;11.70;;;22.30;99.90;;;;;;5092121;28;20635;-72
2023/06/21 05:06:24;;;;;;;10.50;9.77;;;22.60;99.90;;;;;;5091392;28;20209;-73
2023/06/21 05:08:50;;;;;;;14.10;13.13;;;22.90;99.90;;;;;;5091871;28;20196;-72
2023/06/21 05:11:15;;;;;;;13.35;12.43;;;23.10;99.90;;;;;;5091773;28;20169;-72
2023/06/21 05:13:42;;;;;;;9.93;8.88;;;23.10;99.90;;;;;;5091685;28;20560;-72
2023/06/21 05:16:07;;;;;;;8.25;7.07;;;23.40;99.90;;;;;;5091975;28;20276;-73
2023/06/21 05:18:33;;;;;;;10.55;9.68;;;23.60;99.90;;;;;;5091727;28;20338;-72
2023/06/21 05:20:58;;;;;;;7.70;6.95;;;23.70;99.90;;;;;;5073192;28;20184;-72
2023/06/21 05:23:24;;;;;;;8.55;7.75;;;23.80;99.90;;;;;;5091844;28;20173;-71
2023/06/21 05:25:49;;;;;;;10.88;9.95;;;24.00;99.90;;;;;;5091651;28;20296;-72
2023/06/21 05:28:15;;;;;;;8.65;7.40;;;24.00;99.90;;;;;;5091120;28;20188;-72
2023/06/21 05:30:41;;;;;;;8.57;7.97;;;24.00;99.90;;;;;;5090970;28;20258;-72
2023/06/21 05:33:07;;;;;;;8.85;6.60;;;23.90;99.90;;;;;;5091703;28;20438;-71
2023/06/21 05:35:32;;;;;;;10.93;10.13;;;23.90;99.90;;;;;;5091560;28;20196;-71
2023/06/21 05:37:58;;;;;;;8.88;8.02;;;23.90;99.90;;;;;;5090489;28;20583;-72
2023/06/21 05:40:24;;;;;;;8.57;7.80;;;23.90;99.90;;;;;;5091217;28;20169;-72
2023/06/21 05:42:49;;;;;;;8.45;7.65;;;23.90;99.90;;;;;;5091445;28;20627;-72
2023/06/21 05:45:15;;;;;;;8.80;7.63;;;24.00;99.90;;;;;;5091347;28;20200;-72
2023/06/21 05:47:41;;;;;;;8.13;7.32;;;24.10;99.90;;;;;;5074720;28;20206;-72
2023/06/21 05:50:07;;;;;;;8.90;8.05;;;24.20;99.90;;;;;;5070908;28;20679;-71
2023/06/21 05:52:33;;;;;;;8.43;7.25;;;24.40;99.90;;;;;;5071018;28;20545;-71
2023/06/21 05:54:58;;;;;;;9.35;7.80;;;24.50;99.90;;;;;;5071755;28;20213;-71
2023/06/21 05:57:26;;;;;;;9.20;8.50;;;24.70;99.90;;;;;;5091273;28;20223;-72
2023/06/21 05:59:53;;;;;;;8.68;7.20;;;24.90;99.90;;;;;;5090496;28;20608;-71
2023/06/21 06:02:19;;;;;;;10.00;7.00;;;25.10;99.90;;;;;;5091235;28;20166;-71
2023/06/21 06:04:45;;;;;;;8.70;7.10;;;25.30;99.90;;;;;;5091054;28;20224;-72
2023/06/21 06:07:12;;;;;;;10.57;7.60;;;25.00;99.90;;;;;;5072856;28;20221;-72
2023/06/21 06:09:39;;;;;;;9.02;6.88;;;24.80;99.90;;;;;;5090564;28;20196;-73
2023/06/21 06:12:05;;;;;;;6.95;6.35;;;24.60;99.90;;;;;;5090954;28;20165;-72
2023/06/21 06:14:31;;;;;;;10.07;7.18;;;24.60;99.90;;;;;;5090826;28;20308;-72
2023/06/21 06:16:57;;;;;;;8.02;7.32;;;24.60;99.90;;;;;;5090759;28;20238;-70
2023/06/21 06:19:22;;;;;;;9.43;8.63;;;24.70;99.90;;;;;;5090801;28;20319;-72
2023/06/21 06:21:48;;;;;;;10.75;9.68;;;24.90;99.90;;;;;;5090905;28;20216;-71
2023/06/21 06:24:14;;;;;;;7.47;6.32;;;25.20;99.90;;;;;;5091173;28;20642;-70
2023/06/21 06:26:39;;;;;;;8.70;7.28;;;25.60;99.90;;;;;;5090562;28;20170;-72
2023/06/21 06:29:05;;;;;;;12.18;7.75;;;26.00;99.90;;;;;;5091138;28;20192;-74
2023/06/21 06:31:30;;;;;;;10.05;9.02;;;26.30;99.90;;;;;;5090727;28;20177;-71
2023/06/21 06:33:56;;;;;;;7.97;7.15;;;26.40;99.90;;;;;;5091512;28;20245;-72
2023/06/21 06:36:22;;;;;;;8.05;7.25;;;26.70;99.90;;;;;;5072440;28;20247;-71
2023/06/21 06:38:48;;;;;;;7.15;6.45;;;26.90;99.90;;;;;;5090778;28;20165;-72
2023/06/21 06:41:15;;;;;;;6.90;6.15;;;27.30;99.90;;;;;;5090741;28;20181;-71
2023/06/21 06:43:40;;;;;;;8.13;6.68;;;27.50;99.90;;;;;;5090400;28;20178;-71
2023/06/21 06:46:06;;;;;;;7.47;6.68;;;27.60;99.90;;;;;;5089006;28;20223;-72
2023/06/21 06:48:31;;;;;;;7.95;7.25;;;27.60;99.90;;;;;;5090252;28;20177;-71
2023/06/21 06:50:57;;;;;;;10.35;9.55;;;27.10;99.90;;;;;;5094276;28;20257;-73
2023/06/21 06:53:23;;;;;;;10.27;9.40;;;26.70;99.90;;;;;;5094503;28;20687;-71
2023/06/21 06:55:51;;;;;;;7.97;7.20;;;26.30;99.90;;;;;;5093804;28;20225;-71
2023/06/21 06:58:21;;;;;;;8.32;7.63;;;26.20;99.90;;;;;;5094437;28;20512;-71
2023/06/21 07:00:48;;;;;;;7.85;6.90;;;26.20;99.90;;;;;;5094095;28;20173;-72
2023/06/21 07:03:13;;;;;;;10.50;6.05;;;26.30;99.90;;;;;;5076380;28;20539;-72
2023/06/21 07:05:46;;;;;;;6.95;6.35;;;26.50;99.90;;;;;;5093988;28;20193;-72
2023/06/21 07:08:12;;;;;;;8.68;5.97;;;27.00;99.90;;;;;;5094636;28;20189;-72
2023/06/21 07:10:38;;;;;;;8.40;6.38;;;27.30;99.90;;;;;;5093940;28;20174;-72
2023/06/21 07:13:04;;;;;;;7.13;5.78;;;27.60;99.90;;;;;;5094208;28;20640;-71
2023/06/21 07:15:30;;;;;;;8.00;6.10;;;27.70;99.90;;;;;;5094172;28;20189;-72
2023/06/21 07:17:56;;;;;;;9.43;5.57;;;27.80;99.90;;;;;;5094028;28;20646;-72
2023/06/21 07:20:22;;;;;;;10.00;6.60;;;27.70;99.90;;;;;;5093712;28;20588;-71
2023/06/21 07:22:48;;;;;;;6.82;6.10;;;27.70;99.90;;;;;;5075861;28;20182;-71
2023/06/21 07:25:15;;;;;;;8.00;6.57;;;28.20;99.90;;;;;;5093992;28;20272;-71
2023/06/21 07:27:40;;;;;;;6.93;6.32;;;28.40;99.90;;;;;;5093868;28;20168;-72
2023/06/21 07:30:07;;;;;;;6.30;5.53;;;28.10;99.90;;;;;;5093622;28;20166;-71
2023/06/21 07:32:33;;;;;;;7.53;6.35;;;27.50;99.90;;;;;;5093865;28;20196;-71
2023/06/21 07:34:59;;;;;;;7.07;6.10;;;27.00;99.90;;;;;;5093273;28;20686;-72
2023/06/21 07:37:27;;;;;;;7.38;6.68;;;26.90;99.90;;;;;;5093833;28;20302;-73
2023/06/21 07:39:54;;;;;;;7.55;6.70;;;26.80;99.90;;;;;;5093335;28;20174;-72
2023/06/21 07:42:20;;;;;;;8.45;7.18;;;26.80;99.90;;;;;;5093626;28;20174;-71
2023/06/21 07:44:45;;;;;;;9.90;7.00;;;26.80;99.90;;;;;;5093581;28;20185;-72
2023/06/21 07:47:11;;;;;;;8.20;6.45;;;26.70;99.90;;;;;;5093662;28;20216;-72
2023/06/21 07:49:37;;;;;;;8.15;7.35;;;26.80;99.90;;;;;;5093059;28;20201;-72
2023/06/21 07:52:02;;;;;;;8.75;7.32;;;26.90;99.90;;;;;;5093479;28;20178;-73
2023/06/21 07:54:28;;;;;;;7.88;7.18;;;27.10;99.90;;;;;;5093315;28;20205;-73
2023/06/21 07:56:53;;;;;;;7.90;6.38;;;27.30;99.90;;;;;;5093253;28;20714;-72
2023/06/21 07:59:19;;;;;;;7.82;7.13;;;27.50;99.90;;;;;;5092901;28;20174;-72
2023/06/21 08:01:45;;;;;;;8.60;7.80;;;28.00;99.90;;;;;;5092403;28;20205;-72
2023/06/21 08:04:10;;;;;;;8.73;7.15;;;28.50;99.90;;;;;;5093170;28;20169;-71
2023/06/21 08:06:36;;;;;;;7.35;6.65;;;29.00;99.90;;;;;;5074950;28;20189;-71
2023/06/21 08:09:01;;;;;;;7.40;6.15;;;29.90;99.90;;;;;;5092792;28;20864;-71
2023/06/21 08:11:27;;;;;;;6.30;5.70;;;30.30;99.90;;;;;;5093030;28;20269;-72
2023/06/21 08:13:52;;;;;;;6.30;5.55;;;30.10;99.90;;;;;;5074918;28;20205;-72
2023/06/21 08:16:18;;;;;;;7.53;6.07;;;29.80;99.90;;;;;;5093080;28;20185;-72
2023/06/21 08:18:44;;;;;;;7.90;7.30;;;29.50;99.90;;;;;;5093147;28;20169;-71
2023/06/21 08:21:09;;;;;;;9.65;7.47;;;29.30;99.90;;;;;;5092976;28;20545;-72
2023/06/21 08:23:35;;;;;;;7.90;6.63;;;29.60;99.90;;;;;;5074495;28;20169;-72
2023/06/21 08:26:01;;;;;;;8.35;7.60;;;29.60;99.90;;;;;;5092498;28;20198;-72
2023/06/21 08:28:26;;;;;;;6.88;6.28;;;29.30;99.90;;;;;;5092770;28;20639;-72
2023/06/21 08:30:52;;;;;;;7.88;7.07;;;29.40;99.90;;;;;;5074464;28;20318;-72
2023/06/21 08:33:18;;;;;;;7.18;6.47;;;29.70;99.90;;;;;;5092953;28;20193;-72
2023/06/21 08:35:43;;;;;;;9.23;6.40;;;30.20;99.90;;;;;;5073917;28;20659;-72
2023/06/21 08:38:09;;;;;;;7.50;6.60;;;30.20;99.90;;;;;;5092686;28;20176;-73
2023/06/21 08:40:38;;;;;;;6.80;6.10;;;30.10;99.90;;;;;;5091771;28;20688;-72
2023/06/21 08:43:04;;;;;;;7.55;6.75;;;30.20;99.90;;;;;;5092285;28;20635;-72
2023/06/21 08:45:29;;;;;;;6.55;5.90;;;30.30;99.90;;;;;;5092544;28;20202;-73
2023/06/21 08:48:01;;;;;;;9.35;7.75;;;30.40;99.90;;;;;;5092291;28;20172;-72
2023/06/21 08:50:28;;;;;;;10.13;7.75;;;30.10;99.90;;;;;;5091541;28;20585;-72
2023/06/21 08:52:55;;;;;;;6.78;6.18;;;29.50;99.90;;;;;;5092621;28;20181;-72
2023/06/21 08:55:23;;;;;;;9.98;6.80;;;29.50;99.90;;;;;;5092158;28;20275;-72
2023/06/21 08:57:54;;;;;;;6.63;6.03;;;29.50;99.90;;;;;;5092415;28;20173;-73
2023/06/21 09:00:22;;;;;;;10.90;7.20;;;29.50;99.90;;;;;;5092178;28;20219;-72
2023/06/21 09:03:12;;;;;;;7.18;6.68;;;29.90;99.90;;;;;;5090738;28;20170;-72
2023/06/21 09:06:03;;;;;;;7.30;6.60;;;30.40;99.90;;;;;;5091670;28;20190;-73
2023/06/21 09:08:32;;;;;;;7.68;6.78;;;30.70;99.90;;;;;;5091590;28;20196;-73
2023/06/21 09:10:59;;;;;;;8.68;7.88;;;30.90;99.90;;;;;;5091634;28;20166;-73
2023/06/21 09:13:25;;;;;;;8.30;6.93;;;31.20;99.90;;;;;;5092069;28;20588;-72
2023/06/21 09:15:51;;;;;;;7.00;6.25;;;31.30;99.90;;;;;;5090463;28;20188;-72
2023/06/21 09:18:18;;;;;;;10.50;8.23;;;31.40;99.90;;;;;;5091832;28;20177;-72
2023/06/21 09:20:47;;;;;;;8.60;7.90;;;32.00;99.90;;;;;;5091188;28;20252;-72
2023/06/21 09:23:13;;;;;;;9.80;8.80;;;32.30;99.90;;;;;;5091814;28;20569;-72
2023/06/21 09:25:39;;;;;;;8.93;8.13;;;32.40;99.90;;;;;;5091742;28;20193;-71
2023/06/21 09:28:04;;;;;;;6.50;5.90;;;32.70;99.90;;;;;;5091829;28;20174;-72
2023/06/21 09:30:30;;;;;;;7.00;6.40;;;32.90;99.90;;;;;;5091369;28;20174;-73
2023/06/21 09:32:57;;;;;;;7.35;5.75;;;33.00;99.90;;;;;;5091541;28;20242;-73
2023/06/21 09:35:24;;;;;;;8.88;8.07;;;32.60;99.90;;;;;;5091640;28;20193;-73
2023/06/21 09:37:49;;;;;;;8.82;8.00;;;31.80;99.90;;;;;;5091624;28;20170;-72
2023/06/21 09:40:15;;;;;;;8.43;7.72;;;31.80;99.90;;;;;;5091548;28;20303;-70
2023/06/21 09:42:41;;;;;;;7.80;7.13;;;32.00;99.90;;;;;;5091657;28;20208;-72
2023/06/21 09:45:11;;;;;;;7.95;7.25;;;32.00;99.90;;;;;;5091772;28;20238;-72
2023/06/21 09:47:41;;;;;;;7.85;7.15;;;31.50;99.90;;;;;;5091573;28;20165;-72
2023/06/21 09:50:07;;;;;;;10.75;7.60;;;31.10;99.90;;;;;;5089812;28;20174;-72
2023/06/21 09:52:33;;;;;;;12.25;8.38;;;31.30;99.90;;;;;;5071876;28;20183;-72
2023/06/21 09:54:59;;;;;;;11.13;10.18;;;31.60;99.90;;;;;;5091304;28;20217;-72
2023/06/21 09:57:32;;;;;;;7.47;6.72;;;31.60;99.90;;;;;;5091389;28;20587;-72
2023/06/21 10:00:05;;;;;;;7.85;7.15;;;30.90;99.90;;;;;;5091198;28;20166;-72
2023/06/21 10:02:40;;;;;;;9.75;8.95;;;30.10;99.90;;;;;;5091515;28;20162;-71
2023/06/21 10:05:16;;;;;;;9.30;6.72;;;29.70;99.90;;;;;;5091318;28;20216;-72
2023/06/21 10:07:43;;;;;;;8.48;5.68;;;30.00;99.90;;;;;;5072807;28;20201;-72
2023/06/21 10:10:09;;;;;;;6.57;5.78;;;30.60;99.90;;;;;;5091078;28;20165;-71
2023/06/21 10:12:35;;;;;;;6.70;6.10;;;30.30;99.90;;;;;;5091128;28;20569;-72
2023/06/21 10:15:00;;;;;;;7.32;5.78;;;30.30;99.90;;;;;;5089906;28;20211;-73
2023/06/21 10:17:27;;;;;;;8.77;8.05;;;30.60;99.90;;;;;;5091046;28;20527;-72
2023/06/21 10:19:53;;;;;;;8.00;7.30;;;30.90;99.90;;;;;;5090677;28;20426;-72
2023/06/21 10:22:20;;;;;;;9.95;9.20;;;31.20;99.90;;;;;;5072985;28;20218;-71
2023/06/21 10:24:51;;;;;;;7.93;7.18;;;31.10;99.90;;;;;;5092840;28;20185;-72
2023/06/21 10:27:19;;;;;;;9.68;7.38;;;30.90;99.90;;;;;;5095243;28;20259;-71
2023/06/21 10:29:56;;;;;;;7.85;7.15;;;31.10;99.90;;;;;;5094651;28;20197;-72
2023/06/21 10:32:23;;;;;;;8.82;7.78;;;30.70;99.90;;;;;;5095241;28;20252;-72
2023/06/21 10:35:24;;;;;;;8.48;7.63;;;30.20;99.90;;;;;;5094880;28;20208;-73
2023/06/21 10:38:04;;;;;;;8.05;7.25;;;30.20;99.90;;;;;;5012665;28;20198;-71
2023/06/21 10:40:31;;;;;;;10.70;8.45;;;30.70;99.90;;;;;;5085024;28;20190;-72
2023/06/21 10:42:58;;;;;;;10.95;8.45;;;31.10;99.90;;;;;;5094803;28;20576;-71
2023/06/21 10:45:25;;;;;;;10.60;9.63;;;30.90;99.90;;;;;;5095025;28;20548;-71
2023/06/21 10:47:54;;;;;;;8.40;7.43;;;30.50;99.90;;;;;;5094076;28;20165;-72
2023/06/21 10:50:21;;;;;;;6.55;5.95;;;30.40;99.90;;;;;;5092791;28;20195;-72
2023/06/21 10:52:52;;;;;;;9.20;8.40;;;30.70;99.90;;;;;;5094001;28;20208;-71
2023/06/21 10:55:19;;;;;;;9.35;8.30;;;31.10;99.90;;;;;;5094687;28;20667;-71
2023/06/21 10:57:47;;;;;;;10.18;9.38;;;31.20;99.90;;;;;;5094254;28;20177;-71
2023/06/21 11:00:13;;;;;;;8.27;7.65;;;31.10;99.90;;;;;;5073607;28;20213;-71
2023/06/21 11:02:39;;;;;;;12.35;7.85;;;30.90;99.90;;;;;;5088915;28;20214;-71
2023/06/21 11:05:21;;;;;;;7.43;6.72;;;30.40;99.90;;;;;;5094015;28;20201;-71
2023/06/21 11:07:50;;;;;;;7.97;7.28;;;30.30;99.90;;;;;;5094027;28;20189;-71
2023/06/21 11:10:16;;;;;;;9.25;6.38;;;30.10;99.90;;;;;;5093931;28;20243;-71
2023/06/21 11:12:42;;;;;;;8.63;7.47;;;30.50;99.90;;;;;;5094020;28;20245;-71
2023/06/21 11:15:09;;;;;;;7.10;6.57;;;31.10;99.90;;;;;;5093819;28;20205;-71
2023/06/21 11:17:36;;;;;;;7.75;7.05;;;31.30;99.90;;;;;;5093990;28;20240;-71
2023/06/21 11:20:22;;;;;;;9.52;8.52;;;30.80;99.90;;;;;;5093694;28;20529;-71
2023/06/21 11:22:59;;;;;;;10.15;8.13;;;30.20;99.90;;;;;;5091756;28;20655;-71
2023/06/21 11:25:25;;;;;;;8.13;7.32;;;29.70;99.90;;;;;;5093841;28;20185;-71
2023/06/21 11:28:19;;;;;;;6.80;6.30;;;29.70;99.90;;;;;;5093352;28;22043;-72
2023/06/21 11:31:08;;;;;;;7.47;6.88;;;30.10;99.90;;;;;;5093474;28;20599;-72
2023/06/21 11:33:52;;;;;;;9.38;7.43;;;30.10;99.90;;;;;;5093494;28;20197;-70
2023/06/21 11:36:21;;;;;;;9.63;7.28;;;30.10;99.90;;;;;;5091153;28;20617;-71
2023/06/21 11:39:02;;;;;;;8.73;7.18;;;29.90;99.90;;;;;;5093108;28;20181;-71
2023/06/21 11:41:43;;;;;;;7.53;6.82;;;29.50;99.90;;;;;;5093100;28;20535;-70
2023/06/21 11:44:10;;;;;;;8.80;8.10;;;29.40;99.90;;;;;;5075459;28;20596;-70
2023/06/21 11:46:36;;;;;;;7.80;5.75;;;29.30;99.90;;;;;;5092596;28;20165;-71
2023/06/21 11:49:03;;;;;;;7.18;6.57;;;29.40;99.90;;;;;;5092916;28;20189;-72
2023/06/21 11:51:29;;;;;;;8.35;6.72;;;30.10;99.90;;;;;;5080023;28;20244;-72
2023/06/21 11:53:56;;;;;;;8.85;6.97;;;30.60;99.90;;;;;;5075109;28;20198;-71
2023/06/21 11:56:22;;;;;;;5.97;5.47;;;30.80;99.90;;;;;;5093288;28;20554;-72
2023/06/21 11:58:50;;;;;;;7.57;6.72;;;30.80;99.90;;;;;;5093159;28;20256;-71
2023/06/21 12:01:16;;;;;;;8.90;8.10;;;30.70;99.90;;;;;;5092983;28;20170;-71
2023/06/21 12:03:41;;;;;;;5.97;5.50;;;31.00;99.90;;;;;;5093161;28;20200;-72
2023/06/21 12:06:07;;;;;;;7.40;6.90;;;31.40;99.90;;;;;;5093196;28;20197;-72
2023/06/21 12:08:37;;;;;;;6.18;4.93;;;31.80;99.90;;;;;;5092890;28;20189;-71
2023/06/21 12:11:05;;;;;;;7.78;5.68;;;32.10;99.90;;;;;;5093120;28;20177;-72
2023/06/21 12:13:32;;;;;;;6.00;5.40;;;32.50;99.90;;;;;;5093029;28;20288;-71
2023/06/21 12:16:00;;;;;;;6.57;6.07;;;32.60;99.90;;;;;;5092865;28;20932;-72
2023/06/21 12:18:27;;;;;;;5.90;5.40;;;33.00;99.90;;;;;;5092547;28;20188;-70
2023/06/21 12:20:58;;;;;;;6.43;5.82;;;33.10;99.90;;;;;;5092536;28;20282;-71
2023/06/21 12:23:24;;;;;;;8.00;5.28;;;32.60;99.90;;;;;;5081590;28;20181;-71
2023/06/21 12:25:51;;;;;;;5.40;4.63;;;32.00;99.90;;;;;;5092118;28;20667;-71
2023/06/21 12:28:21;;;;;;;5.35;4.95;;;31.70;99.90;;;;;;5092614;28;20643;-70
2023/06/21 12:30:58;;;;;;;5.30;4.90;;;31.50;99.90;;;;;;5091649;28;20208;-71
2023/06/21 12:33:26;;;;;;;5.03;4.50;;;31.70;99.90;;;;;;5092300;28;20197;-71
2023/06/21 12:35:52;;;;;;;5.85;4.75;;;31.80;99.90;;;;;;5092177;28;20185;-70
2023/06/21 12:38:18;;;;;;;6.00;5.47;;;31.60;99.90;;;;;;5092214;28;20264;-71
2023/06/21 12:41:19;;;;;;;5.60;5.03;;;32.00;99.90;;;;;;5091726;28;20216;-70
2023/06/21 12:43:47;;;;;;;7.65;5.18;;;32.30;99.90;;;;;;5077853;28;20195;-71
2023/06/21 12:46:13;;;;;;;5.43;5.03;;;32.30;99.90;;;;;;5092045;28;20201;-71
2023/06/21 12:48:44;;;;;;;5.70;5.20;;;32.20;99.90;;;;;;5091479;28;20544;-70